sensor_id;sensor_type;location;lat;lon;timestamp;pressure;altitude;pressure_sealevel;temperature;humidity
51081;BME280;37130;55.670;37.596;2023-08-06T00:00:41;99773.34;;;20.84;78.46
51081;BME280;37130;55.670;37.596;2023-08-06T00:03:09;99757.88;;;20.76;78.44
51081;BME280;37130;55.670;37.596;2023-08-06T00:05:37;99759.44;;;20.79;78.42
51081;BME280;37130;55.670;37.596;2023-08-06T00:08:04;99776.31;;;20.81;78.43
51081;BME280;37130;55.670;37.596;2023-08-06T00:10:32;99770.09;;;20.81;77.88
51081;BME280;37130;55.670;37.596;2023-08-06T00:12:59;99775.47;;;20.81;77.65
51081;BME280;37130;55.670;37.596;2023-08-06T00:15:26;99775.31;;;20.82;77.87
51081;BME280;37130;55.670;37.596;2023-08-06T00:17:54;99770.22;;;20.79;77.89
51081;BME280;37130;55.670;37.596;2023-08-06T00:20:21;99774.47;;;20.82;77.87
51081;BME280;37130;55.670;37.596;2023-08-06T00:22:49;99786.94;;;20.83;77.81
51081;BME280;37130;55.670;37.596;2023-08-06T00:25:16;99771.66;;;20.83;77.50
51081;BME280;37130;55.670;37.596;2023-08-06T00:27:45;99778.00;;;20.82;77.67
51081;BME280;37130;55.670;37.596;2023-08-06T00:30:12;99716.75;;;20.44;77.18
51081;BME280;37130;55.670;37.596;2023-08-06T00:32:39;99775.72;;;20.77;77.57
51081;BME280;37130;55.670;37.596;2023-08-06T00:35:07;99782.81;;;20.78;76.59
51081;BME280;37130;55.670;37.596;2023-08-06T00:37:34;99784.41;;;20.81;76.82
51081;BME280;37130;55.670;37.596;2023-08-06T00:40:02;99686.59;;;20.19;77.02
51081;BME280;37130;55.670;37.596;2023-08-06T00:42:29;99781.97;;;20.78;77.15
51081;BME280;37130;55.670;37.596;2023-08-06T00:44:57;99786.47;;;20.77;77.36
51081;BME280;37130;55.670;37.596;2023-08-06T00:47:24;99785.06;;;20.73;77.47
51081;BME280;37130;55.670;37.596;2023-08-06T00:49:52;99788.47;;;20.75;77.75
51081;BME280;37130;55.670;37.596;2023-08-06T00:52:19;99781.66;;;20.71;77.85
51081;BME280;37130;55.670;37.596;2023-08-06T00:54:47;99781.81;;;20.70;78.10
51081;BME280;37130;55.670;37.596;2023-08-06T00:57:15;99784.34;;;20.71;78.16
51081;BME280;37130;55.670;37.596;2023-08-06T00:59:42;99780.81;;;20.71;78.24
51081;BME280;37130;55.670;37.596;2023-08-06T01:02:10;99781.47;;;20.63;78.28
51081;BME280;37130;55.670;37.596;2023-08-06T01:04:37;99790.53;;;20.62;78.53
51081;BME280;37130;55.670;37.596;2023-08-06T01:15:55;99788.78;;;20.40;79.10
51081;BME280;37130;55.670;37.596;2023-08-06T01:18:26;99791.38;;;20.42;79.50
51081;BME280;37130;55.670;37.596;2023-08-06T01:20:54;99794.06;;;20.42;79.44
51081;BME280;37130;55.670;37.596;2023-08-06T01:23:22;99790.50;;;20.41;79.53
51081;BME280;37130;55.670;37.596;2023-08-06T01:28:37;99788.47;;;20.33;79.42
51081;BME280;37130;55.670;37.596;2023-08-06T01:31:22;99790.44;;;20.31;79.73
51081;BME280;37130;55.670;37.596;2023-08-06T01:33:52;99792.75;;;20.36;79.91
51081;BME280;37130;55.670;37.596;2023-08-06T01:36:21;99793.44;;;20.38;79.86
51081;BME280;37130;55.670;37.596;2023-08-06T01:38:51;99741.56;;;20.05;79.99
51081;BME280;37130;55.670;37.596;2023-08-06T01:41:20;99794.56;;;20.35;80.48
51081;BME280;37130;55.670;37.596;2023-08-06T01:43:47;99805.47;;;20.34;80.43
51081;BME280;37130;55.670;37.596;2023-08-06T01:46:15;99806.19;;;20.36;80.66
51081;BME280;37130;55.670;37.596;2023-08-06T01:48:42;99802.38;;;20.39;80.87
51081;BME280;37130;55.670;37.596;2023-08-06T01:51:10;99803.81;;;20.43;80.84
51081;BME280;37130;55.670;37.596;2023-08-06T01:53:38;99802.59;;;20.47;80.66
51081;BME280;37130;55.670;37.596;2023-08-06T01:56:05;99810.38;;;20.50;80.81
51081;BME280;37130;55.670;37.596;2023-08-06T01:58:34;99820.88;;;20.53;81.06
51081;BME280;37130;55.670;37.596;2023-08-06T02:01:02;99811.34;;;20.60;80.68
51081;BME280;37130;55.670;37.596;2023-08-06T02:03:29;99815.22;;;20.67;80.63
51081;BME280;37130;55.670;37.596;2023-08-06T02:05:56;99812.09;;;20.72;80.24
51081;BME280;37130;55.670;37.596;2023-08-06T02:08:24;99791.38;;;20.63;80.39
51081;BME280;37130;55.670;37.596;2023-08-06T02:10:52;99824.50;;;20.84;80.16
51081;BME280;37130;55.670;37.596;2023-08-06T02:13:20;99825.16;;;20.97;79.63
51081;BME280;37130;55.670;37.596;2023-08-06T02:15:48;99821.59;;;21.28;78.40
51081;BME280;37130;55.670;37.596;2023-08-06T02:18:16;99822.59;;;21.67;77.11
51081;BME280;37130;55.670;37.596;2023-08-06T02:20:54;99815.00;;;22.30;74.83
51081;BME280;37130;55.670;37.596;2023-08-06T02:23:23;99826.59;;;23.27;71.80
51081;BME280;37130;55.670;37.596;2023-08-06T02:26:04;99828.00;;;24.40;68.44
51081;BME280;37130;55.670;37.596;2023-08-06T02:28:32;99801.91;;;25.09;65.42
51081;BME280;37130;55.670;37.596;2023-08-06T02:30:59;99835.53;;;25.16;64.64
51081;BME280;37130;55.670;37.596;2023-08-06T02:33:28;99825.75;;;24.35;66.29
51081;BME280;37130;55.670;37.596;2023-08-06T02:35:59;99834.56;;;23.83;67.62
51081;BME280;37130;55.670;37.596;2023-08-06T02:38:28;99829.06;;;23.48;68.67
51081;BME280;37130;55.670;37.596;2023-08-06T02:40:56;99791.56;;;22.97;69.45
51081;BME280;37130;55.670;37.596;2023-08-06T02:43:24;99831.63;;;23.12;69.85
51081;BME280;37130;55.670;37.596;2023-08-06T02:45:51;99835.06;;;23.04;69.84
51081;BME280;37130;55.670;37.596;2023-08-06T02:48:19;99831.66;;;23.02;69.78
51081;BME280;37130;55.670;37.596;2023-08-06T02:50:47;99833.50;;;23.02;69.64
51081;BME280;37130;55.670;37.596;2023-08-06T02:53:14;99830.81;;;23.02;69.83
51081;BME280;37130;55.670;37.596;2023-08-06T02:55:46;99828.25;;;23.00;69.87
51081;BME280;37130;55.670;37.596;2023-08-06T02:58:22;99830.50;;;23.05;69.53
51081;BME280;37130;55.670;37.596;2023-08-06T03:01:06;99828.09;;;23.11;69.49
51081;BME280;37130;55.670;37.596;2023-08-06T03:03:57;99822.22;;;23.16;69.73
51081;BME280;37130;55.670;37.596;2023-08-06T03:06:31;99830.84;;;23.29;69.44
51081;BME280;37130;55.670;37.596;2023-08-06T03:09:00;99829.09;;;23.38;68.90
51081;BME280;37130;55.670;37.596;2023-08-06T03:11:28;99823.66;;;23.48;68.73
51081;BME280;37130;55.670;37.596;2023-08-06T03:14:01;99820.28;;;24.89;65.09
51081;BME280;37130;55.670;37.596;2023-08-06T03:16:30;99826.69;;;27.92;57.34
51081;BME280;37130;55.670;37.596;2023-08-06T03:18:59;99835.75;;;30.60;51.56
51081;BME280;37130;55.670;37.596;2023-08-06T03:21:27;99787.97;;;32.35;47.44
51081;BME280;37130;55.670;37.596;2023-08-06T03:23:54;99813.28;;;34.14;43.38
51081;BME280;37130;55.670;37.596;2023-08-06T03:26:26;99852.59;;;35.65;41.07
51081;BME280;37130;55.670;37.596;2023-08-06T03:28:54;99845.59;;;36.71;38.51
51081;BME280;37130;55.670;37.596;2023-08-06T03:31:21;99846.75;;;37.46;36.92
51081;BME280;37130;55.670;37.596;2023-08-06T03:33:49;99854.44;;;38.25;35.69
51081;BME280;37130;55.670;37.596;2023-08-06T03:36:23;99860.41;;;38.96;34.14
51081;BME280;37130;55.670;37.596;2023-08-06T03:38:52;99864.44;;;39.66;33.50
51081;BME280;37130;55.670;37.596;2023-08-06T03:41:19;99864.78;;;40.41;31.92
51081;BME280;37130;55.670;37.596;2023-08-06T03:43:47;99868.78;;;40.87;30.77
51081;BME280;37130;55.670;37.596;2023-08-06T03:46:20;99860.44;;;41.77;29.29
51081;BME280;37130;55.670;37.596;2023-08-06T03:48:48;99860.88;;;42.22;28.48
51081;BME280;37130;55.670;37.596;2023-08-06T03:51:16;99862.84;;;42.47;27.87
51081;BME280;37130;55.670;37.596;2023-08-06T03:53:46;99861.47;;;42.70;27.67
51081;BME280;37130;55.670;37.596;2023-08-06T03:56:14;99872.59;;;43.26;26.91
51081;BME280;37130;55.670;37.596;2023-08-06T03:58:41;99867.22;;;44.15;25.66
51081;BME280;37130;55.670;37.596;2023-08-06T04:01:09;99840.44;;;44.49;25.14
51081;BME280;37130;55.670;37.596;2023-08-06T04:03:42;99872.03;;;45.13;24.11
51081;BME280;37130;55.670;37.596;2023-08-06T04:06:09;99865.25;;;45.43;24.12
51081;BME280;37130;55.670;37.596;2023-08-06T04:08:37;99865.06;;;45.82;23.47
51081;BME280;37130;55.670;37.596;2023-08-06T04:11:04;99866.38;;;46.09;22.63
51081;BME280;37130;55.670;37.596;2023-08-06T04:13:32;99869.84;;;45.82;23.24
51081;BME280;37130;55.670;37.596;2023-08-06T04:16:03;99862.31;;;46.39;22.38
51081;BME280;37130;55.670;37.596;2023-08-06T04:18:31;99844.25;;;46.64;21.98
51081;BME280;37130;55.670;37.596;2023-08-06T04:21:01;99808.91;;;46.49;21.28
51081;BME280;37130;55.670;37.596;2023-08-06T04:23:29;99862.97;;;47.29;21.27
51081;BME280;37130;55.670;37.596;2023-08-06T04:26:01;99872.97;;;47.35;21.31
51081;BME280;37130;55.670;37.596;2023-08-06T04:28:34;99842.06;;;47.21;21.17
51081;BME280;37130;55.670;37.596;2023-08-06T04:31:01;99865.38;;;47.50;21.04
51081;BME280;37130;55.670;37.596;2023-08-06T04:33:31;99863.31;;;48.05;20.61
51081;BME280;37130;55.670;37.596;2023-08-06T04:36:04;99858.53;;;48.87;20.04
51081;BME280;37130;55.670;37.596;2023-08-06T04:38:33;99861.41;;;49.27;18.88
51081;BME280;37130;55.670;37.596;2023-08-06T04:41:02;99821.38;;;48.23;19.40
51081;BME280;37130;55.670;37.596;2023-08-06T04:43:31;99864.63;;;49.12;18.42
51081;BME280;37130;55.670;37.596;2023-08-06T04:45:58;99868.19;;;49.84;18.39
51081;BME280;37130;55.670;37.596;2023-08-06T04:48:26;99806.81;;;49.46;17.86
51081;BME280;37130;55.670;37.596;2023-08-06T04:50:54;99864.16;;;48.87;18.47
51081;BME280;37130;55.670;37.596;2023-08-06T04:53:22;99866.94;;;48.56;18.74
51081;BME280;37130;55.670;37.596;2023-08-06T04:55:49;99867.66;;;49.64;18.65
51081;BME280;37130;55.670;37.596;2023-08-06T04:58:17;99869.56;;;49.95;17.73
51081;BME280;37130;55.670;37.596;2023-08-06T05:00:44;99863.56;;;49.79;18.24
51081;BME280;37130;55.670;37.596;2023-08-06T05:03:11;99857.75;;;49.75;18.14
51081;BME280;37130;55.670;37.596;2023-08-06T05:05:40;99857.63;;;49.32;18.26
51081;BME280;37130;55.670;37.596;2023-08-06T05:08:14;99858.06;;;49.65;17.96
51081;BME280;37130;55.670;37.596;2023-08-06T05:10:44;99799.50;;;49.36;18.14
51081;BME280;37130;55.670;37.596;2023-08-06T05:13:11;99860.25;;;49.86;18.06
51081;BME280;37130;55.670;37.596;2023-08-06T05:15:39;99820.56;;;48.76;18.81
51081;BME280;37130;55.670;37.596;2023-08-06T05:18:10;99851.44;;;49.70;18.08
51081;BME280;37130;55.670;37.596;2023-08-06T05:20:40;99846.38;;;50.33;17.80
51081;BME280;37130;55.670;37.596;2023-08-06T05:23:08;99841.69;;;50.72;17.39
51081;BME280;37130;55.670;37.596;2023-08-06T05:25:35;99846.66;;;51.22;16.69
51081;BME280;37130;55.670;37.596;2023-08-06T05:28:04;99849.78;;;51.67;16.79
51081;BME280;37130;55.670;37.596;2023-08-06T05:30:31;99848.44;;;51.44;16.22
51081;BME280;37130;55.670;37.596;2023-08-06T05:32:58;99828.16;;;51.33;16.85
51081;BME280;37130;55.670;37.596;2023-08-06T05:35:26;99841.13;;;51.93;16.02
51081;BME280;37130;55.670;37.596;2023-08-06T05:37:53;99844.63;;;51.90;16.05
51081;BME280;37130;55.670;37.596;2023-08-06T05:40:21;99851.97;;;52.12;16.72
51081;BME280;37130;55.670;37.596;2023-08-06T05:42:48;99844.69;;;52.78;15.65
51081;BME280;37130;55.670;37.596;2023-08-06T05:45:16;99847.34;;;53.20;15.69
51081;BME280;37130;55.670;37.596;2023-08-06T05:47:43;99840.06;;;53.43;15.22
51081;BME280;37130;55.670;37.596;2023-08-06T05:50:11;99852.13;;;52.95;15.49
51081;BME280;37130;55.670;37.596;2023-08-06T05:52:39;99840.13;;;52.86;15.14
51081;BME280;37130;55.670;37.596;2023-08-06T05:55:06;99841.31;;;53.58;15.04
51081;BME280;37130;55.670;37.596;2023-08-06T05:57:34;99842.28;;;53.26;14.94
51081;BME280;37130;55.670;37.596;2023-08-06T06:00:02;99837.03;;;53.03;15.55
51081;BME280;37130;55.670;37.596;2023-08-06T06:02:40;99835.19;;;53.07;14.94
51081;BME280;37130;55.670;37.596;2023-08-06T06:05:07;99834.25;;;53.15;15.01
51081;BME280;37130;55.670;37.596;2023-08-06T06:07:35;99840.28;;;52.14;15.35
51081;BME280;37130;55.670;37.596;2023-08-06T06:10:02;99838.47;;;52.51;15.42
51081;BME280;37130;55.670;37.596;2023-08-06T06:12:30;99839.53;;;52.80;14.90
51081;BME280;37130;55.670;37.596;2023-08-06T06:14:57;99836.13;;;52.99;15.36
51081;BME280;37130;55.670;37.596;2023-08-06T06:17:24;99833.78;;;53.26;14.56
51081;BME280;37130;55.670;37.596;2023-08-06T06:19:52;99839.88;;;53.03;14.87
51081;BME280;37130;55.670;37.596;2023-08-06T06:22:19;99835.03;;;52.25;15.38
51081;BME280;37130;55.670;37.596;2023-08-06T06:24:46;99832.78;;;51.97;15.69
51081;BME280;37130;55.670;37.596;2023-08-06T06:27:14;99824.72;;;51.36;16.72
51081;BME280;37130;55.670;37.596;2023-08-06T06:29:41;99829.97;;;52.18;15.82
51081;BME280;37130;55.670;37.596;2023-08-06T06:32:08;99834.97;;;53.12;15.37
51081;BME280;37130;55.670;37.596;2023-08-06T06:34:36;99829.84;;;52.81;16.07
51081;BME280;37130;55.670;37.596;2023-08-06T06:37:03;99816.38;;;52.90;15.22
51081;BME280;37130;55.670;37.596;2023-08-06T06:39:31;99824.94;;;53.27;15.64
51081;BME280;37130;55.670;37.596;2023-08-06T06:41:58;99822.69;;;52.29;15.73
51081;BME280;37130;55.670;37.596;2023-08-06T06:44:35;99822.38;;;52.10;16.48
51081;BME280;37130;55.670;37.596;2023-08-06T06:47:02;99818.53;;;52.48;15.75
51081;BME280;37130;55.670;37.596;2023-08-06T06:49:29;99818.47;;;52.56;15.35
51081;BME280;37130;55.670;37.596;2023-08-06T06:51:57;99810.75;;;52.45;16.32
51081;BME280;37130;55.670;37.596;2023-08-06T06:54:25;99819.94;;;52.00;16.48
51081;BME280;37130;55.670;37.596;2023-08-06T06:56:52;99808.44;;;51.84;16.80
51081;BME280;37130;55.670;37.596;2023-08-06T06:59:19;99808.22;;;51.68;16.64
51081;BME280;37130;55.670;37.596;2023-08-06T07:01:47;99741.09;;;49.94;17.40
51081;BME280;37130;55.670;37.596;2023-08-06T07:04:14;99804.56;;;49.74;17.63
51081;BME280;37130;55.670;37.596;2023-08-06T07:06:42;99807.03;;;49.67;18.04
51081;BME280;37130;55.670;37.596;2023-08-06T07:09:09;99804.72;;;49.86;18.02
51081;BME280;37130;55.670;37.596;2023-08-06T07:11:37;99804.09;;;50.15;17.35
51081;BME280;37130;55.670;37.596;2023-08-06T07:14:04;99746.38;;;48.95;18.27
51081;BME280;37130;55.670;37.596;2023-08-06T07:16:31;99805.75;;;49.24;18.17
51081;BME280;37130;55.670;37.596;2023-08-06T07:19:01;99800.09;;;49.82;18.02
51081;BME280;37130;55.670;37.596;2023-08-06T07:21:28;99760.13;;;49.53;18.21
51081;BME280;37130;55.670;37.596;2023-08-06T07:23:56;99771.25;;;49.93;17.78
51081;BME280;37130;55.670;37.596;2023-08-06T07:26:24;99793.25;;;50.61;17.35
51081;BME280;37130;55.670;37.596;2023-08-06T07:28:51;99779.63;;;50.72;17.47
51081;BME280;37130;55.670;37.596;2023-08-06T07:31:19;99799.78;;;51.29;17.21
51081;BME280;37130;55.670;37.596;2023-08-06T07:33:46;99782.50;;;51.10;17.18
51081;BME280;37130;55.670;37.596;2023-08-06T07:36:14;99795.28;;;51.07;16.61
51081;BME280;37130;55.670;37.596;2023-08-06T07:38:42;99786.66;;;50.31;17.67
51081;BME280;37130;55.670;37.596;2023-08-06T07:41:10;99795.94;;;50.22;17.92
51081;BME280;37130;55.670;37.596;2023-08-06T07:43:37;99787.00;;;50.94;17.48
51081;BME280;37130;55.670;37.596;2023-08-06T07:46:04;99795.69;;;51.78;16.23
51081;BME280;37130;55.670;37.596;2023-08-06T07:48:32;99788.63;;;50.56;17.24
51081;BME280;37130;55.670;37.596;2023-08-06T07:51:00;99792.91;;;51.18;16.79
51081;BME280;37130;55.670;37.596;2023-08-06T07:53:27;99789.44;;;51.42;16.94
51081;BME280;37130;55.670;37.596;2023-08-06T07:55:56;99781.22;;;50.90;16.74
51081;BME280;37130;55.670;37.596;2023-08-06T07:58:25;99781.50;;;50.50;17.04
51081;BME280;37130;55.670;37.596;2023-08-06T08:00:52;99782.78;;;50.70;16.86
51081;BME280;37130;55.670;37.596;2023-08-06T08:03:20;99786.66;;;49.96;17.74
51081;BME280;37130;55.670;37.596;2023-08-06T08:05:48;99785.25;;;49.32;18.09
51081;BME280;37130;55.670;37.596;2023-08-06T08:08:15;99724.38;;;48.57;18.16
51081;BME280;37130;55.670;37.596;2023-08-06T08:10:43;99770.44;;;49.18;18.68
51081;BME280;37130;55.670;37.596;2023-08-06T08:13:10;99774.59;;;48.81;18.47
51081;BME280;37130;55.670;37.596;2023-08-06T08:15:38;99767.69;;;47.88;18.43
51081;BME280;37130;55.670;37.596;2023-08-06T08:18:05;99779.19;;;47.64;19.14
51081;BME280;37130;55.670;37.596;2023-08-06T08:20:32;99771.44;;;48.20;18.22
51081;BME280;37130;55.670;37.596;2023-08-06T08:23:02;99770.88;;;47.45;18.57
51081;BME280;37130;55.670;37.596;2023-08-06T08:25:29;99758.47;;;45.60;20.08
51081;BME280;37130;55.670;37.596;2023-08-06T08:27:58;99701.53;;;44.25;21.03
51081;BME280;37130;55.670;37.596;2023-08-06T08:30:26;99755.00;;;42.94;22.70
51081;BME280;37130;55.670;37.596;2023-08-06T08:32:53;99746.34;;;40.99;25.10
51081;BME280;37130;55.670;37.596;2023-08-06T08:35:21;99741.59;;;39.65;26.62
51081;BME280;37130;55.670;37.596;2023-08-06T08:37:48;99737.25;;;38.48;27.92
51081;BME280;37130;55.670;37.596;2023-08-06T08:40:16;99739.06;;;37.63;29.36
51081;BME280;37130;55.670;37.596;2023-08-06T08:42:43;99669.50;;;36.73;30.42
51081;BME280;37130;55.670;37.596;2023-08-06T08:45:13;99717.75;;;36.71;30.61
51081;BME280;37130;55.670;37.596;2023-08-06T08:47:42;99718.22;;;36.44;31.20
51081;BME280;37130;55.670;37.596;2023-08-06T08:50:13;99723.50;;;35.80;31.87
51081;BME280;37130;55.670;37.596;2023-08-06T08:52:42;99722.25;;;35.46;32.92
51081;BME280;37130;55.670;37.596;2023-08-06T08:55:15;99720.94;;;35.48;32.67
51081;BME280;37130;55.670;37.596;2023-08-06T08:57:43;99708.91;;;35.12;33.02
51081;BME280;37130;55.670;37.596;2023-08-06T09:00:11;99715.09;;;35.08;33.49
51081;BME280;37130;55.670;37.596;2023-08-06T09:02:39;99710.88;;;35.05;34.16
51081;BME280;37130;55.670;37.596;2023-08-06T09:05:09;99718.13;;;35.00;34.13
51081;BME280;37130;55.670;37.596;2023-08-06T09:07:42;99710.34;;;34.78;34.39
51081;BME280;37130;55.670;37.596;2023-08-06T09:10:11;99666.56;;;34.33;34.76
51081;BME280;37130;55.670;37.596;2023-08-06T09:12:41;99707.75;;;34.40;35.65
51081;BME280;37130;55.670;37.596;2023-08-06T09:15:09;99710.91;;;34.18;35.40
51081;BME280;37130;55.670;37.596;2023-08-06T09:17:36;99627.66;;;33.48;35.59
51081;BME280;37130;55.670;37.596;2023-08-06T09:20:14;99709.84;;;33.88;35.71
51081;BME280;37130;55.670;37.596;2023-08-06T09:22:41;99714.28;;;33.89;36.19
51081;BME280;37130;55.670;37.596;2023-08-06T09:25:09;99712.44;;;34.14;36.14
51081;BME280;37130;55.670;37.596;2023-08-06T09:27:37;99709.59;;;34.46;36.34
51081;BME280;37130;55.670;37.596;2023-08-06T09:30:08;99703.31;;;34.64;35.66
51081;BME280;37130;55.670;37.596;2023-08-06T09:32:48;99691.66;;;34.43;35.32
51081;BME280;37130;55.670;37.596;2023-08-06T09:35:18;99703.16;;;34.34;35.47
51081;BME280;37130;55.670;37.596;2023-08-06T09:37:46;99663.50;;;34.23;35.63
51081;BME280;37130;55.670;37.596;2023-08-06T09:40:31;99696.31;;;34.43;35.54
51081;BME280;37130;55.670;37.596;2023-08-06T09:42:59;99652.16;;;34.13;35.46
51081;BME280;37130;55.670;37.596;2023-08-06T09:45:36;99697.25;;;33.73;36.20
51081;BME280;37130;55.670;37.596;2023-08-06T09:48:08;99697.34;;;33.53;36.97
51081;BME280;37130;55.670;37.596;2023-08-06T09:50:37;99690.00;;;33.54;37.33
51081;BME280;37130;55.670;37.596;2023-08-06T09:53:07;99686.88;;;33.44;37.07
51081;BME280;37130;55.670;37.596;2023-08-06T09:55:36;99661.16;;;33.31;37.47
51081;BME280;37130;55.670;37.596;2023-08-06T09:58:04;99673.09;;;33.57;38.10
51081;BME280;37130;55.670;37.596;2023-08-06T10:00:33;99641.50;;;33.34;37.48
51081;BME280;37130;55.670;37.596;2023-08-06T10:03:06;99667.94;;;33.29;37.77
51081;BME280;37130;55.670;37.596;2023-08-06T10:05:34;99662.78;;;32.94;38.32
51081;BME280;37130;55.670;37.596;2023-08-06T10:08:03;99663.69;;;32.81;38.92
51081;BME280;37130;55.670;37.596;2023-08-06T10:10:32;99668.94;;;32.89;38.39
51081;BME280;37130;55.670;37.596;2023-08-06T10:13:00;99660.69;;;32.89;38.38
51081;BME280;37130;55.670;37.596;2023-08-06T10:15:32;99653.00;;;32.46;38.82
51081;BME280;37130;55.670;37.596;2023-08-06T10:18:01;99658.94;;;32.23;39.28
51081;BME280;37130;55.670;37.596;2023-08-06T10:20:35;99643.34;;;31.97;40.12
51081;BME280;37130;55.670;37.596;2023-08-06T10:23:04;99647.78;;;32.05;39.64
51081;BME280;37130;55.670;37.596;2023-08-06T10:25:40;99645.88;;;31.99;40.22
51081;BME280;37130;55.670;37.596;2023-08-06T10:28:12;99641.69;;;32.09;40.54
51081;BME280;37130;55.670;37.596;2023-08-06T10:30:47;99624.13;;;32.17;39.44
51081;BME280;37130;55.670;37.596;2023-08-06T10:33:15;99635.72;;;32.39;39.51
51081;BME280;37130;55.670;37.596;2023-08-06T10:35:47;99638.06;;;32.49;39.36
51081;BME280;37130;55.670;37.596;2023-08-06T10:38:22;99636.78;;;32.31;39.45
51081;BME280;37130;55.670;37.596;2023-08-06T10:41:01;99637.44;;;32.20;39.73
51081;BME280;37130;55.670;37.596;2023-08-06T10:43:36;99633.81;;;32.33;39.64
51081;BME280;37130;55.670;37.596;2023-08-06T10:46:25;99628.97;;;32.35;39.99
51081;BME280;37130;55.670;37.596;2023-08-06T10:48:54;99637.38;;;32.47;40.51
51081;BME280;37130;55.670;37.596;2023-08-06T10:51:21;99552.28;;;32.08;39.35
51081;BME280;37130;55.670;37.596;2023-08-06T10:53:50;99639.88;;;32.68;39.48
51081;BME280;37130;55.670;37.596;2023-08-06T10:56:19;99631.47;;;32.63;39.60
51081;BME280;37130;55.670;37.596;2023-08-06T10:58:48;99640.97;;;32.41;39.61
51081;BME280;37130;55.670;37.596;2023-08-06T11:01:16;99632.38;;;32.30;39.40
51081;BME280;37130;55.670;37.596;2023-08-06T11:03:45;99626.44;;;32.34;39.35
51081;BME280;37130;55.670;37.596;2023-08-06T11:06:22;99588.09;;;32.14;38.60
51081;BME280;37130;55.670;37.596;2023-08-06T11:08:52;99631.69;;;32.35;38.88
51081;BME280;37130;55.670;37.596;2023-08-06T11:11:22;99624.75;;;32.33;39.15
51081;BME280;37130;55.670;37.596;2023-08-06T11:13:51;99628.75;;;32.37;39.04
51081;BME280;37130;55.670;37.596;2023-08-06T11:16:23;99629.41;;;32.19;39.19
51081;BME280;37130;55.670;37.596;2023-08-06T11:18:54;99622.06;;;32.06;39.77
51081;BME280;37130;55.670;37.596;2023-08-06T11:21:24;99629.00;;;32.22;39.60
51081;BME280;37130;55.670;37.596;2023-08-06T11:23:52;99586.00;;;32.16;40.21
51081;BME280;37130;55.670;37.596;2023-08-06T11:26:21;99622.22;;;32.44;39.94
51081;BME280;37130;55.670;37.596;2023-08-06T11:28:50;99521.97;;;31.57;40.04
51081;BME280;37130;55.670;37.596;2023-08-06T11:31:22;99616.75;;;31.91;40.42
51081;BME280;37130;55.670;37.596;2023-08-06T11:33:54;99625.00;;;31.98;40.24
51081;BME280;37130;55.670;37.596;2023-08-06T11:36:31;99609.59;;;32.23;40.02
51081;BME280;37130;55.670;37.596;2023-08-06T11:39:02;99579.28;;;32.05;39.93
51081;BME280;37130;55.670;37.596;2023-08-06T11:41:30;99620.31;;;32.45;39.59
51081;BME280;37130;55.670;37.596;2023-08-06T11:44:01;99608.34;;;32.26;39.97
51081;BME280;37130;55.670;37.596;2023-08-06T11:46:28;99617.38;;;32.20;40.19
51081;BME280;37130;55.670;37.596;2023-08-06T11:48:58;99616.34;;;32.14;40.37
51081;BME280;37130;55.670;37.596;2023-08-06T11:51:25;99630.88;;;32.15;40.31
51081;BME280;37130;55.670;37.596;2023-08-06T11:53:59;99606.66;;;31.85;40.76
51081;BME280;37130;55.670;37.596;2023-08-06T11:56:27;99603.28;;;31.76;41.07
51081;BME280;37130;55.670;37.596;2023-08-06T11:58:55;99566.22;;;31.47;41.23
51081;BME280;37130;55.670;37.596;2023-08-06T12:01:23;99605.38;;;31.54;41.12
51081;BME280;37130;55.670;37.596;2023-08-06T12:03:50;99609.34;;;31.32;41.55
51081;BME280;37130;55.670;37.596;2023-08-06T12:06:18;99601.75;;;31.34;41.66
51081;BME280;37130;55.670;37.596;2023-08-06T12:08:46;99596.91;;;31.29;41.43
51081;BME280;37130;55.670;37.596;2023-08-06T12:11:13;99597.16;;;31.48;41.22
51081;BME280;37130;55.670;37.596;2023-08-06T12:13:41;99583.06;;;31.37;42.03
51081;BME280;37130;55.670;37.596;2023-08-06T12:16:08;99596.47;;;31.32;42.18
51081;BME280;37130;55.670;37.596;2023-08-06T12:18:36;99596.47;;;31.26;42.40
51081;BME280;37130;55.670;37.596;2023-08-06T12:21:03;99590.97;;;31.12;42.19
51081;BME280;37130;55.670;37.596;2023-08-06T12:23:30;99547.34;;;30.84;42.30
51081;BME280;37130;55.670;37.596;2023-08-06T12:26:00;99574.97;;;31.09;42.35
51081;BME280;37130;55.670;37.596;2023-08-06T12:28:28;99551.63;;;31.27;42.04
51081;BME280;37130;55.670;37.596;2023-08-06T12:30:55;99576.75;;;31.83;40.65
51081;BME280;37130;55.670;37.596;2023-08-06T12:33:23;99580.34;;;31.97;40.36
51081;BME280;37130;55.670;37.596;2023-08-06T12:35:50;99587.69;;;32.10;40.95
51081;BME280;37130;55.670;37.596;2023-08-06T12:38:17;99590.44;;;32.03;41.21
51081;BME280;37130;55.670;37.596;2023-08-06T12:40:45;99581.78;;;32.06;41.00
51081;BME280;37130;55.670;37.596;2023-08-06T12:43:13;99577.38;;;31.92;41.31
51081;BME280;37130;55.670;37.596;2023-08-06T12:45:40;99577.38;;;32.05;41.33
51081;BME280;37130;55.670;37.596;2023-08-06T12:48:08;99569.56;;;31.89;41.07
51081;BME280;37130;55.670;37.596;2023-08-06T12:50:35;99585.78;;;31.77;41.51
51081;BME280;37130;55.670;37.596;2023-08-06T12:53:03;99580.13;;;31.52;42.23
51081;BME280;37130;55.670;37.596;2023-08-06T12:55:32;99570.34;;;31.16;42.60
51081;BME280;37130;55.670;37.596;2023-08-06T12:58:00;99572.63;;;30.93;43.32
51081;BME280;37130;55.670;37.596;2023-08-06T13:00:27;99573.38;;;30.80;43.26
51081;BME280;37130;55.670;37.596;2023-08-06T13:02:55;99572.34;;;30.81;43.70
51081;BME280;37130;55.670;37.596;2023-08-06T13:05:23;99566.59;;;30.69;44.06
51081;BME280;37130;55.670;37.596;2023-08-06T13:07:50;99564.25;;;30.60;43.93
51081;BME280;37130;55.670;37.596;2023-08-06T13:10:18;99563.81;;;30.56;44.03